DW3748 Weather Reports


Display with metric or nautical units.
time (UTC)temp
F
wind
direction
speed
MPH
gust
MPH
rain 1hr
in
rain 24hr
in
rain mn
in
humidity
%
barometer
mb
20210128144531 21 313 10.0 17.0 0.00 0.00 0.00 76 1011.7
20210128143114 21 305 11.0 19.0 0.00 0.00 0.00 77 1011.9
20210128141642 21 279 10.0 18.0 0.00 0.00 0.00 77 1011.9
20210128140144 21 292 11.0 16.0 0.00 0.00 0.00 77 1011.9
20210128134535 21 314 12.0 16.0 0.00 0.00 0.00 77 1011.6
20210128133119 20 312 7.0 14.0 0.00 0.00 0.00 76 1011.4
20210128131756 20 301 9.0 17.0 0.00 0.00 0.00 75 1011.2
20210128130130 20 316 9.0 14.0 0.00 0.00 0.00 76 1011.3
20210128124700 20 318 12.0 17.0 0.00 0.00 0.00 75 1011.1
20210128123119 20 306 8.0 13.0 0.00 0.00 0.00 75 1010.7
20210128121651 20 342 6.0 11.0 0.00 0.00 0.00 76 1010.6
20210128120142 21 332 9.0 17.0 0.00 0.00 0.00 75 1010.7
20210128114710 21 274 11.0 19.0 0.00 0.00 0.00 77 1010.6
20210128111559 21 288 13.0 20.0 0.00 0.00 0.00 79 1010.8
20210128110021 21 343 7.0 16.0 0.00 0.00 0.00 78 1010.6
20210128104543 21 314 15.0 20.0 0.00 0.00 0.00 76 1010.5
20210128103123 21 311 10.0 16.0 0.00 0.00 0.00 75 1010.6
20210128101523 21 290 9.0 12.0 0.00 0.00 0.00 75 1010.5
20210128100204 20 322 7.0 13.0 0.00 0.00 0.00 78 1010.2
20210128094607 21 322 11.0 20.0 0.00 0.00 0.00 75 1010.0
20210128093307 21 305 13.0 19.0 0.00 0.00 0.00 76 1009.9
20210128091532 20 308 10.0 13.0 0.00 0.00 0.00 79 1009.8
20210128090111 20 301 9.0 15.0 0.00 0.00 0.00 79 1009.8
20210128084742 20 327 12.0 18.0 0.00 0.00 0.00 74 1009.9
20210128083136 20 322 10.0 18.0 0.00 0.00 0.00 73 1009.9
20210128081535 20 322 10.0 16.0 0.00 0.00 0.00 74 1009.8
20210128080155 20 318 8.0 19.0 0.00 0.00 0.00 73 1010.0
20210128074712 20 315 14.0 19.0 0.00 0.00 0.00 75 1009.8
20210128073210 21 300 13.0 21.0 0.00 0.00 0.00 77 1009.7
20210128071604 21 8 8.0 16.0 0.00 0.00 0.00 77 1009.3
20210128070101 21 354 9.0 16.0 0.00 0.00 0.00 73 1009.4
20210128061600 21 18 10.0 16.0 0.00 0.00 0.00 74 1009.2
20210128054550 21 344 11.0 17.0 0.00 0.00 0.00 74 1009.1
20210128053023 21 354 11.0 15.0 0.00 0.00 0.00 71 1009.0
20210128051627 21 320 10.0 18.0 0.00 0.00 0.00 72 1009.1
20210128050040 21 336 13.0 20.0 0.00 0.00 0.00 71 1009.1
20210128044644 21 330 9.0 15.0 0.00 0.00 0.00 69 1008.9
20210128043255 22 328 13.0 18.0 0.00 0.00 0.00 71 1008.8
20210128041528 22 316 13.0 21.0 0.00 0.00 0.00 71 1008.5
20210128040038 22 315 11.0 17.0 0.00 0.00 0.00 71 1008.4
20210128034626 22 299 15.0 21.0 0.00 0.00 0.00 73 1008.2
20210128033321 22 354 11.0 19.0 0.00 0.00 0.00 72 1008.1
20210128031639 22 338 12.0 21.0 0.00 0.00 0.00 73 1007.9
20210128030106 22 289 12.0 18.0 0.00 0.00 0.00 72 1007.8
20210128024717 23 313 13.0 20.0 0.00 0.00 0.00 74 1007.7
20210128023241 23 316 15.0 21.0 0.00 0.00 0.00 74 1007.6
20210128021521 23 300 11.0 20.0 0.00 0.00 0.00 74 1007.5
20210128020134 23 311 12.0 21.0 0.00 0.00 0.00 72 1007.5
20210128014724 23 314 10.0 17.0 0.00 0.00 0.00 73 1007.4
20210128013245 23 305 13.0 21.0 0.00 0.00 0.00 72 1007.3
20210128011543 23 311 12.0 20.0 0.00 0.00 0.00 71 1007.3
20210128010206 23 330 12.0 17.0 0.00 0.00 0.00 71 1007.2
20210128004733 23 337 14.0 18.0 0.00 0.00 0.00 71 1007.1
20210128003242 23 14 8.0 15.0 0.00 0.00 0.00 72 1007.1
20210128001528 23 14 9.0 16.0 0.00 0.00 0.00 75 1006.9
20210128000410 22 308 9.0 15.0 0.00 0.00 0.00 73 1006.9
20210127234642 22 334 11.0 19.0 0.00 0.00 0.00 72 1006.9
20210127231643 22 332 10.0 17.0 0.00 0.00 0.00 76 1006.6
20210127230120 22 337 10.0 20.0 0.00 0.00 0.00 72 1006.4
20210127223107 22 307 11.0 19.0 0.00 0.00 0.00 76 1006.2
20210127221614 22 331 11.0 17.0 0.00 0.00 0.00 74 1006.0
20210127220156 23 331 8.0 17.0 0.00 0.00 0.00 75 1005.8
20210127214529 23 339 10.0 15.0 0.00 0.00 0.00 74 1005.6
20210127213055 23 8 7.0 21.0 0.00 0.00 0.00 75 1005.2
20210127211655 23 322 12.0 17.0 0.00 0.00 0.00 76 1005.0
20210127210154 23 337 13.0 22.0 0.00 0.00 0.00 77 1004.8
20210127204521 23 327 16.0 23.0 0.00 0.00 0.00 78 1004.7
20210127203050 24 310 16.0 23.0 0.00 0.00 0.00 80 1004.6
20210127201701 24 343 14.0 23.0 0.00 0.00 0.00 78 1004.3
20210127200247 24 350 15.0 22.0 0.00 0.00 0.00 79 1004.3
20210127194555 24 344 15.0 22.0 0.00 0.00 0.00 81 1004.3
20210127193159 24 354 13.0 24.0 0.00 0.00 0.00 81 1004.1
20210127191629 24 274 14.0 22.0 0.00 0.00 0.00 83 1004.1
20210127184604 24 326 16.0 21.0 0.00 0.00 0.00 81 1004.4
20210127183145 24 293 14.0 20.0 0.00 0.00 0.00 80 1004.4
20210127180127 24 321 14.0 20.0 0.00 0.00 0.00 82 1004.5
20210127174725 24 297 11.0 18.0 0.00 0.00 0.00 85 1004.6
20210127173317 24 320 14.0 20.0 0.00 0.00 0.00 81 1004.8
20210127171525 24 332 9.0 16.0 0.00 0.00 0.00 82 1005.1
20210127170156 23 337 9.0 19.0 0.00 0.00 0.00 85 1005.2
20210127164658 24 305 11.0 15.0 0.00 0.00 0.00 81 1005.2
20210127163250 24 309 12.0 16.0 0.00 0.00 0.00 82 1005.2
20210127161531 23 324 5.0 10.0 0.00 0.00 0.00 82 1005.3
20210127160120 23 56 2.0 4.0 0.00 0.00 0.00 80 1005.2
20210127154639 23 25 2.0 5.0 0.00 0.00 0.00 79 1005.2
20210127153047 23 10 1.0 4.0 0.00 0.00 0.00 79 1005.0
20210127151610 23 21 3.0 7.0 0.00 0.00 0.00 78 1005.0
20210127150128 23 50 3.0 5.0 0.00 0.00 0.00 79 1004.9